sensor_id;sensor_type;location;lat;lon;timestamp;pressure;altitude;pressure_sealevel;temperature;humidity
55685;BME280;41883;49.544;8.646;2023-06-19T00:03:42;99824.56;;;24.25;nan
55685;BME280;41883;49.544;8.646;2023-06-19T00:06:07;99814.50;;;24.15;nan
55685;BME280;41883;49.544;8.646;2023-06-19T00:08:32;99827.66;;;24.06;nan
55685;BME280;41883;49.544;8.646;2023-06-19T00:10:58;99829.19;;;23.97;nan
55685;BME280;41883;49.544;8.646;2023-06-19T00:13:23;99824.84;;;23.91;nan
55685;BME280;41883;49.544;8.646;2023-06-19T00:15:48;99834.19;;;23.83;nan
55685;BME280;41883;49.544;8.646;2023-06-19T00:18:13;99821.66;;;23.72;nan
55685;BME280;41883;49.544;8.646;2023-06-19T00:20:38;99823.75;;;23.65;nan
55685;BME280;41883;49.544;8.646;2023-06-19T00:23:04;99825.84;;;23.58;nan
55685;BME280;41883;49.544;8.646;2023-06-19T00:27:55;99838.41;;;23.47;nan
55685;BME280;41883;49.544;8.646;2023-06-19T00:35:14;99786.13;;;23.53;nan
55685;BME280;41883;49.544;8.646;2023-06-19T00:37:40;99837.56;;;23.41;nan
55685;BME280;41883;49.544;8.646;2023-06-19T00:40:10;99838.75;;;23.28;nan
55685;BME280;41883;49.544;8.646;2023-06-19T00:42:38;99829.50;;;23.19;nan
55685;BME280;41883;49.544;8.646;2023-06-19T00:45:03;99876.28;;;23.08;nan
55685;BME280;41883;49.544;8.646;2023-06-19T00:49:54;99846.72;;;23.18;nan
55685;BME280;41883;49.544;8.646;2023-06-19T00:52:19;99844.72;;;23.08;nan
55685;BME280;41883;49.544;8.646;2023-06-19T00:54:45;99831.03;;;22.93;nan
55685;BME280;41883;49.544;8.646;2023-06-19T00:57:10;99850.19;;;22.75;nan
55685;BME280;41883;49.544;8.646;2023-06-19T00:59:35;99833.56;;;22.61;nan
55685;BME280;41883;49.544;8.646;2023-06-19T01:02:01;99912.44;;;22.56;nan
55685;BME280;41883;49.544;8.646;2023-06-19T01:04:26;99860.84;;;22.47;nan
55685;BME280;41883;49.544;8.646;2023-06-19T01:06:59;99841.31;;;22.40;nan
55685;BME280;41883;49.544;8.646;2023-06-19T01:09:29;99859.72;;;22.43;nan
55685;BME280;41883;49.544;8.646;2023-06-19T01:12:01;99857.03;;;22.43;nan
55685;BME280;41883;49.544;8.646;2023-06-19T01:17:00;99839.78;;;22.27;nan
55685;BME280;41883;49.544;8.646;2023-06-19T01:19:25;99847.88;;;22.27;nan
55685;BME280;41883;49.544;8.646;2023-06-19T01:24:16;99846.63;;;22.18;nan
55685;BME280;41883;49.544;8.646;2023-06-19T01:29:10;99860.50;;;22.10;nan
55685;BME280;41883;49.544;8.646;2023-06-19T01:31:50;99866.69;;;21.94;nan
55685;BME280;41883;49.544;8.646;2023-06-19T01:34:19;99879.84;;;21.78;nan
55685;BME280;41883;49.544;8.646;2023-06-19T01:36:47;99904.69;;;21.69;nan
55685;BME280;41883;49.544;8.646;2023-06-19T01:39:15;99889.94;;;21.71;nan
55685;BME280;41883;49.544;8.646;2023-06-19T01:41:42;99963.06;;;21.80;nan
55685;BME280;41883;49.544;8.646;2023-06-19T01:46:33;99864.00;;;21.94;nan
55685;BME280;41883;49.544;8.646;2023-06-19T01:48:59;99876.47;;;22.00;nan
55685;BME280;41883;49.544;8.646;2023-06-19T01:51:24;99914.28;;;22.05;nan
55685;BME280;41883;49.544;8.646;2023-06-19T01:53:49;99870.78;;;22.13;nan
55685;BME280;41883;49.544;8.646;2023-06-19T01:56:15;99884.09;;;22.20;nan
55685;BME280;41883;49.544;8.646;2023-06-19T01:58:40;99972.50;;;22.23;nan
55685;BME280;41883;49.544;8.646;2023-06-19T02:03:30;99925.50;;;22.31;nan
55685;BME280;41883;49.544;8.646;2023-06-19T02:10:46;99916.03;;;22.45;nan
55685;BME280;41883;49.544;8.646;2023-06-19T02:13:11;99934.50;;;22.53;nan
55685;BME280;41883;49.544;8.646;2023-06-19T02:15:37;99928.59;;;22.56;nan
55685;BME280;41883;49.544;8.646;2023-06-19T02:18:03;99930.50;;;22.56;nan
55685;BME280;41883;49.544;8.646;2023-06-19T02:20:29;99932.94;;;22.57;nan
55685;BME280;41883;49.544;8.646;2023-06-19T02:25:19;99935.16;;;22.60;nan
55685;BME280;41883;49.544;8.646;2023-06-19T02:27:44;99894.78;;;22.65;nan
55685;BME280;41883;49.544;8.646;2023-06-19T02:35:01;99919.47;;;22.74;nan
55685;BME280;41883;49.544;8.646;2023-06-19T02:37:26;99873.38;;;22.76;nan
55685;BME280;41883;49.544;8.646;2023-06-19T02:44:42;99998.28;;;22.81;nan
55685;BME280;41883;49.544;8.646;2023-06-19T02:59:16;100003.41;;;22.83;nan
55685;BME280;41883;49.544;8.646;2023-06-19T03:09:04;100004.56;;;22.87;nan
55685;BME280;41883;49.544;8.646;2023-06-19T03:11:30;99991.66;;;22.89;nan
55685;BME280;41883;49.544;8.646;2023-06-19T03:13:55;99969.44;;;22.82;nan
55685;BME280;41883;49.544;8.646;2023-06-19T03:16:21;99964.84;;;22.82;nan
55685;BME280;41883;49.544;8.646;2023-06-19T03:21:15;99992.97;;;22.86;nan
55685;BME280;41883;49.544;8.646;2023-06-19T03:23:41;100013.13;;;22.84;nan
55685;BME280;41883;49.544;8.646;2023-06-19T03:30:57;100017.22;;;22.69;nan
55685;BME280;41883;49.544;8.646;2023-06-19T03:33:22;100015.00;;;22.66;nan
55685;BME280;41883;49.544;8.646;2023-06-19T03:38:13;100030.50;;;22.59;nan
55685;BME280;41883;49.544;8.646;2023-06-19T03:40:39;100034.56;;;22.45;nan
55685;BME280;41883;49.544;8.646;2023-06-19T03:47:54;100043.81;;;22.20;nan
55685;BME280;41883;49.544;8.646;2023-06-19T03:50:19;100042.22;;;22.08;nan
55685;BME280;41883;49.544;8.646;2023-06-19T03:52:45;100019.16;;;22.00;nan
55685;BME280;41883;49.544;8.646;2023-06-19T03:55:10;100044.97;;;21.84;nan
55685;BME280;41883;49.544;8.646;2023-06-19T03:57:35;100042.84;;;21.86;nan
55685;BME280;41883;49.544;8.646;2023-06-19T04:00:00;100051.41;;;21.71;nan
55685;BME280;41883;49.544;8.646;2023-06-19T04:02:26;100052.16;;;21.67;nan
55685;BME280;41883;49.544;8.646;2023-06-19T04:04:51;100020.91;;;21.66;nan
55685;BME280;41883;49.544;8.646;2023-06-19T04:12:07;100042.91;;;21.62;nan
55685;BME280;41883;49.544;8.646;2023-06-19T04:14:32;100038.34;;;21.63;nan
55685;BME280;41883;49.544;8.646;2023-06-19T04:21:48;100058.47;;;21.60;nan
55685;BME280;41883;49.544;8.646;2023-06-19T04:24:13;100053.31;;;21.59;nan
55685;BME280;41883;49.544;8.646;2023-06-19T04:29:04;87210.38;;;22.54;100.00
55685;BME280;41883;49.544;8.646;2023-06-19T04:31:31;100069.13;;;21.55;nan
55685;BME280;41883;49.544;8.646;2023-06-19T04:36:22;100066.88;;;21.64;nan
55685;BME280;41883;49.544;8.646;2023-06-19T04:38:48;100141.75;;;21.67;nan
55685;BME280;41883;49.544;8.646;2023-06-19T04:41:16;100075.53;;;21.66;nan
55685;BME280;41883;49.544;8.646;2023-06-19T04:43:42;100095.31;;;21.72;nan
55685;BME280;41883;49.544;8.646;2023-06-19T04:46:07;100091.44;;;21.79;nan
55685;BME280;41883;49.544;8.646;2023-06-19T04:50:57;100059.00;;;21.86;nan
55685;BME280;41883;49.544;8.646;2023-06-19T04:53:26;100090.22;;;21.99;nan
55685;BME280;41883;49.544;8.646;2023-06-19T04:58:19;100105.63;;;22.15;nan
55685;BME280;41883;49.544;8.646;2023-06-19T05:00:46;100134.19;;;22.16;nan
55685;BME280;41883;49.544;8.646;2023-06-19T05:05:42;100090.41;;;22.09;nan
55685;BME280;41883;49.544;8.646;2023-06-19T05:08:07;100072.81;;;22.18;nan
55685;BME280;41883;49.544;8.646;2023-06-19T05:12:57;100105.75;;;22.20;nan
55685;BME280;41883;49.544;8.646;2023-06-19T05:15:23;100061.59;;;22.21;nan
55685;BME280;41883;49.544;8.646;2023-06-19T05:17:48;100081.97;;;22.29;nan
55685;BME280;41883;49.544;8.646;2023-06-19T05:20:13;100081.72;;;22.31;nan
55685;BME280;41883;49.544;8.646;2023-06-19T05:25:04;100100.88;;;22.46;nan
55685;BME280;41883;49.544;8.646;2023-06-19T05:27:30;100098.28;;;22.51;nan
55685;BME280;41883;49.544;8.646;2023-06-19T05:29:55;100110.53;;;22.59;nan
55685;BME280;41883;49.544;8.646;2023-06-19T05:37:10;100110.00;;;22.74;nan
55685;BME280;41883;49.544;8.646;2023-06-19T05:49:17;100107.84;;;23.21;nan
55685;BME280;41883;49.544;8.646;2023-06-19T05:51:42;100097.66;;;23.23;nan
55685;BME280;41883;49.544;8.646;2023-06-19T06:01:26;100117.06;;;23.76;nan
55685;BME280;41883;49.544;8.646;2023-06-19T06:03:55;100106.72;;;24.12;nan
55685;BME280;41883;49.544;8.646;2023-06-19T06:06:22;100175.72;;;24.42;nan
55685;BME280;41883;49.544;8.646;2023-06-19T06:08:48;100142.91;;;24.55;nan
55685;BME280;41883;49.544;8.646;2023-06-19T06:11:13;100149.94;;;24.78;nan
55685;BME280;41883;49.544;8.646;2023-06-19T06:16:10;100128.47;;;24.93;nan
55685;BME280;41883;49.544;8.646;2023-06-19T06:18:35;100135.28;;;25.01;nan
55685;BME280;41883;49.544;8.646;2023-06-19T06:23:26;100175.75;;;25.50;nan
55685;BME280;41883;49.544;8.646;2023-06-19T06:25:51;100142.28;;;25.67;nan
55685;BME280;41883;49.544;8.646;2023-06-19T06:30:42;100138.94;;;25.92;nan
55685;BME280;41883;49.544;8.646;2023-06-19T06:38:00;100149.31;;;26.78;nan
55685;BME280;41883;49.544;8.646;2023-06-19T06:50:07;100162.38;;;27.63;nan
55685;BME280;41883;49.544;8.646;2023-06-19T06:52:33;100153.09;;;27.95;nan
55685;BME280;41883;49.544;8.646;2023-06-19T06:57:24;100154.91;;;28.20;nan
55685;BME280;41883;49.544;8.646;2023-06-19T06:59:49;100152.63;;;28.43;nan
55685;BME280;41883;49.544;8.646;2023-06-19T07:02:14;100116.56;;;28.22;nan
55685;BME280;41883;49.544;8.646;2023-06-19T07:04:40;100167.63;;;28.35;nan
55685;BME280;41883;49.544;8.646;2023-06-19T07:07:05;100149.91;;;28.43;nan
55685;BME280;41883;49.544;8.646;2023-06-19T07:09:31;100198.09;;;28.27;nan
55685;BME280;41883;49.544;8.646;2023-06-19T07:11:57;100155.88;;;28.45;nan
55685;BME280;41883;49.544;8.646;2023-06-19T07:14:22;100158.47;;;28.75;nan
55685;BME280;41883;49.544;8.646;2023-06-19T07:16:48;100156.66;;;28.55;nan
55685;BME280;41883;49.544;8.646;2023-06-19T07:19:14;100171.03;;;28.66;nan
55685;BME280;41883;49.544;8.646;2023-06-19T07:21:40;100178.59;;;28.79;nan
55685;BME280;41883;49.544;8.646;2023-06-19T07:24:05;100174.69;;;28.91;nan
55685;BME280;41883;49.544;8.646;2023-06-19T07:26:31;100175.50;;;28.91;nan
55685;BME280;41883;49.544;8.646;2023-06-19T07:28:56;100237.50;;;28.99;nan
55685;BME280;41883;49.544;8.646;2023-06-19T07:31:21;100188.19;;;29.06;nan
55685;BME280;41883;49.544;8.646;2023-06-19T07:33:47;100185.91;;;28.84;nan
55685;BME280;41883;49.544;8.646;2023-06-19T07:36:12;100190.97;;;29.01;nan
55685;BME280;41883;49.544;8.646;2023-06-19T07:38:42;100183.28;;;29.13;nan
55685;BME280;41883;49.544;8.646;2023-06-19T07:41:08;100188.16;;;29.16;nan
55685;BME280;41883;49.544;8.646;2023-06-19T07:43:35;100193.09;;;29.09;nan
55685;BME280;41883;49.544;8.646;2023-06-19T07:48:25;100195.75;;;30.07;nan
55685;BME280;41883;49.544;8.646;2023-06-19T07:53:16;100246.63;;;30.46;nan
55685;BME280;41883;49.544;8.646;2023-06-19T07:55:41;100217.72;;;30.21;nan
55685;BME280;41883;49.544;8.646;2023-06-19T07:58:06;100217.03;;;30.34;nan
55685;BME280;41883;49.544;8.646;2023-06-19T08:00:32;100218.50;;;30.21;nan
55685;BME280;41883;49.544;8.646;2023-06-19T08:02:57;100219.22;;;30.56;nan
55685;BME280;41883;49.544;8.646;2023-06-19T08:05:22;100237.94;;;30.15;nan
55685;BME280;41883;49.544;8.646;2023-06-19T08:07:47;100223.81;;;29.83;nan
55685;BME280;41883;49.544;8.646;2023-06-19T08:10:12;100218.81;;;29.67;nan
55685;BME280;41883;49.544;8.646;2023-06-19T08:12:38;100235.88;;;29.77;nan
55685;BME280;41883;49.544;8.646;2023-06-19T08:15:03;100230.59;;;29.57;nan
55685;BME280;41883;49.544;8.646;2023-06-19T08:17:28;100229.94;;;29.36;nan
55685;BME280;41883;49.544;8.646;2023-06-19T08:19:53;100232.06;;;29.44;nan
55685;BME280;41883;49.544;8.646;2023-06-19T08:22:19;100230.56;;;29.91;nan
55685;BME280;41883;49.544;8.646;2023-06-19T08:24:44;100235.97;;;30.25;nan
55685;BME280;41883;49.544;8.646;2023-06-19T08:27:09;100233.91;;;29.83;nan
55685;BME280;41883;49.544;8.646;2023-06-19T08:29:34;100239.22;;;29.69;nan
55685;BME280;41883;49.544;8.646;2023-06-19T08:31:59;100235.88;;;29.43;nan
55685;BME280;41883;49.544;8.646;2023-06-19T08:34:26;100231.94;;;29.25;nan
55685;BME280;41883;49.544;8.646;2023-06-19T08:36:51;100239.50;;;29.62;nan
55685;BME280;41883;49.544;8.646;2023-06-19T08:39:17;100232.44;;;29.61;nan
55685;BME280;41883;49.544;8.646;2023-06-19T08:41:42;100232.06;;;29.44;nan
55685;BME280;41883;49.544;8.646;2023-06-19T08:44:08;100241.88;;;29.74;nan
55685;BME280;41883;49.544;8.646;2023-06-19T08:46:33;100235.56;;;30.37;nan
55685;BME280;41883;49.544;8.646;2023-06-19T08:48:59;100237.03;;;30.73;nan
55685;BME280;41883;49.544;8.646;2023-06-19T08:51:26;100235.50;;;31.23;nan
55685;BME280;41883;49.544;8.646;2023-06-19T08:53:55;100236.88;;;32.19;nan
55685;BME280;41883;49.544;8.646;2023-06-19T08:56:20;100249.47;;;33.34;nan
55685;BME280;41883;49.544;8.646;2023-06-19T08:58:46;100347.25;;;34.07;nan
55685;BME280;41883;49.544;8.646;2023-06-19T09:01:13;100328.75;;;34.12;nan
55685;BME280;41883;49.544;8.646;2023-06-19T09:03:38;100333.56;;;34.46;nan
55685;BME280;41883;49.544;8.646;2023-06-19T09:06:04;100338.78;;;34.57;nan
55685;BME280;41883;49.544;8.646;2023-06-19T09:08:31;100346.56;;;35.12;nan
55685;BME280;41883;49.544;8.646;2023-06-19T09:11:00;100341.47;;;34.79;nan
55685;BME280;41883;49.544;8.646;2023-06-19T09:13:25;100339.41;;;33.91;nan
55685;BME280;41883;49.544;8.646;2023-06-19T09:15:57;100337.66;;;33.73;nan
55685;BME280;41883;49.544;8.646;2023-06-19T09:18:23;100340.28;;;33.78;nan
55685;BME280;41883;49.544;8.646;2023-06-19T09:20:53;100336.47;;;33.65;nan
55685;BME280;41883;49.544;8.646;2023-06-19T09:23:19;100342.22;;;33.41;nan
55685;BME280;41883;49.544;8.646;2023-06-19T09:25:47;100335.72;;;32.87;nan
55685;BME280;41883;49.544;8.646;2023-06-19T09:28:20;100339.84;;;33.26;nan
55685;BME280;41883;49.544;8.646;2023-06-19T09:30:52;100336.56;;;33.37;nan
55685;BME280;41883;49.544;8.646;2023-06-19T09:33:18;100335.41;;;33.75;nan
55685;BME280;41883;49.544;8.646;2023-06-19T09:35:43;100337.94;;;33.85;nan
55685;BME280;41883;49.544;8.646;2023-06-19T09:38:08;100333.34;;;34.03;nan
55685;BME280;41883;49.544;8.646;2023-06-19T09:40:34;100328.22;;;34.41;nan
55685;BME280;41883;49.544;8.646;2023-06-19T09:42:59;100327.44;;;34.98;nan
55685;BME280;41883;49.544;8.646;2023-06-19T09:45:26;100340.00;;;34.73;nan
55685;BME280;41883;49.544;8.646;2023-06-19T09:47:53;100343.66;;;33.75;nan
55685;BME280;41883;49.544;8.646;2023-06-19T09:50:19;100342.84;;;33.38;nan
55685;BME280;41883;49.544;8.646;2023-06-19T09:52:46;100329.94;;;33.02;nan
55685;BME280;41883;49.544;8.646;2023-06-19T09:55:12;100329.53;;;32.95;nan
55685;BME280;41883;49.544;8.646;2023-06-19T09:57:38;100319.44;;;33.18;nan
55685;BME280;41883;49.544;8.646;2023-06-19T10:00:04;100334.38;;;32.98;nan
55685;BME280;41883;49.544;8.646;2023-06-19T10:02:42;100330.63;;;33.44;nan
55685;BME280;41883;49.544;8.646;2023-06-19T10:05:08;100329.97;;;34.68;nan
55685;BME280;41883;49.544;8.646;2023-06-19T10:07:36;100325.94;;;34.66;nan
55685;BME280;41883;49.544;8.646;2023-06-19T10:10:03;100324.41;;;34.20;nan
55685;BME280;41883;49.544;8.646;2023-06-19T10:12:41;100327.91;;;34.92;nan
55685;BME280;41883;49.544;8.646;2023-06-19T10:17:35;100325.88;;;35.15;nan
55685;BME280;41883;49.544;8.646;2023-06-19T10:20:00;100324.44;;;34.60;nan
55685;BME280;41883;49.544;8.646;2023-06-19T10:22:32;100321.47;;;34.47;nan
55685;BME280;41883;49.544;8.646;2023-06-19T10:24:57;100324.34;;;34.82;nan
55685;BME280;41883;49.544;8.646;2023-06-19T10:27:23;100327.66;;;35.19;nan
55685;BME280;41883;49.544;8.646;2023-06-19T10:29:52;100317.25;;;35.94;nan
55685;BME280;41883;49.544;8.646;2023-06-19T10:32:18;100324.50;;;36.64;nan
55685;BME280;41883;49.544;8.646;2023-06-19T10:34:47;100323.16;;;37.20;nan
55685;BME280;41883;49.544;8.646;2023-06-19T10:37:14;100312.94;;;37.63;nan
55685;BME280;41883;49.544;8.646;2023-06-19T10:39:39;100313.47;;;37.90;nan
55685;BME280;41883;49.544;8.646;2023-06-19T10:42:07;100311.34;;;38.08;nan
55685;BME280;41883;49.544;8.646;2023-06-19T10:44:33;100307.69;;;37.82;nan
55685;BME280;41883;49.544;8.646;2023-06-19T10:46:58;100304.22;;;37.73;nan
55685;BME280;41883;49.544;8.646;2023-06-19T10:49:23;100305.28;;;38.27;nan
55685;BME280;41883;49.544;8.646;2023-06-19T10:51:49;100300.81;;;38.47;nan
55685;BME280;41883;49.544;8.646;2023-06-19T10:54:14;100291.66;;;38.83;nan
55685;BME280;41883;49.544;8.646;2023-06-19T10:56:39;100290.59;;;38.87;nan
55685;BME280;41883;49.544;8.646;2023-06-19T10:59:06;100287.16;;;38.91;nan
55685;BME280;41883;49.544;8.646;2023-06-19T11:04:01;100289.84;;;39.27;nan
55685;BME280;41883;49.544;8.646;2023-06-19T11:06:27;100283.66;;;40.06;nan
55685;BME280;41883;49.544;8.646;2023-06-19T11:08:53;100276.16;;;40.90;nan
55685;BME280;41883;49.544;8.646;2023-06-19T11:11:18;100279.06;;;40.62;nan
55685;BME280;41883;49.544;8.646;2023-06-19T11:13:45;100265.44;;;40.21;nan
55685;BME280;41883;49.544;8.646;2023-06-19T11:16:10;100278.25;;;40.26;nan
55685;BME280;41883;49.544;8.646;2023-06-19T11:18:36;100273.03;;;39.92;nan
55685;BME280;41883;49.544;8.646;2023-06-19T11:21:01;100262.31;;;40.23;nan
55685;BME280;41883;49.544;8.646;2023-06-19T11:23:30;100262.72;;;40.72;nan
55685;BME280;41883;49.544;8.646;2023-06-19T11:26:04;100267.69;;;41.41;nan
55685;BME280;41883;49.544;8.646;2023-06-19T11:28:30;100260.09;;;41.38;nan
55685;BME280;41883;49.544;8.646;2023-06-19T11:31:00;100249.53;;;41.24;nan
55685;BME280;41883;49.544;8.646;2023-06-19T11:33:26;100246.63;;;41.17;nan
55685;BME280;41883;49.544;8.646;2023-06-19T11:35:53;100249.94;;;41.46;nan
55685;BME280;41883;49.544;8.646;2023-06-19T11:38:24;100247.84;;;41.82;nan
55685;BME280;41883;49.544;8.646;2023-06-19T11:40:50;100247.31;;;41.95;nan
55685;BME280;41883;49.544;8.646;2023-06-19T11:43:28;100241.44;;;41.81;nan
55685;BME280;41883;49.544;8.646;2023-06-19T11:46:02;100240.44;;;41.47;nan
55685;BME280;41883;49.544;8.646;2023-06-19T11:48:27;100236.56;;;41.51;nan
55685;BME280;41883;49.544;8.646;2023-06-19T11:50:53;100234.06;;;40.84;nan
55685;BME280;41883;49.544;8.646;2023-06-19T11:53:20;100234.91;;;40.33;nan
55685;BME280;41883;49.544;8.646;2023-06-19T11:55:45;100237.09;;;40.44;nan
55685;BME280;41883;49.544;8.646;2023-06-19T11:58:11;100232.16;;;40.88;nan
55685;BME280;41883;49.544;8.646;2023-06-19T12:00:36;100227.47;;;40.73;nan
55685;BME280;41883;49.544;8.646;2023-06-19T12:03:03;100227.88;;;40.55;nan
55685;BME280;41883;49.544;8.646;2023-06-19T12:05:28;100238.00;;;40.16;nan
55685;BME280;41883;49.544;8.646;2023-06-19T12:07:53;100232.78;;;40.62;nan
55685;BME280;41883;49.544;8.646;2023-06-19T12:10:19;100225.13;;;40.75;nan
55685;BME280;41883;49.544;8.646;2023-06-19T12:12:44;100223.47;;;40.19;nan
55685;BME280;41883;49.544;8.646;2023-06-19T12:15:09;100227.50;;;40.06;nan
55685;BME280;41883;49.544;8.646;2023-06-19T12:17:35;100244.97;;;39.78;nan
55685;BME280;41883;49.544;8.646;2023-06-19T12:20:01;100234.88;;;38.98;nan
55685;BME280;41883;49.544;8.646;2023-06-19T12:22:27;100240.41;;;37.63;nan
55685;BME280;41883;49.544;8.646;2023-06-19T12:24:53;100233.00;;;37.21;nan
55685;BME280;41883;49.544;8.646;2023-06-19T12:27:18;100237.56;;;36.75;nan
55685;BME280;41883;49.544;8.646;2023-06-19T12:29:44;100227.78;;;36.27;nan
55685;BME280;41883;49.544;8.646;2023-06-19T12:32:09;100233.31;;;35.80;nan
55685;BME280;41883;49.544;8.646;2023-06-19T12:34:34;100224.59;;;35.51;nan
55685;BME280;41883;49.544;8.646;2023-06-19T12:36:59;100220.59;;;35.40;nan
55685;BME280;41883;49.544;8.646;2023-06-19T12:39:25;100227.56;;;35.38;nan
55685;BME280;41883;49.544;8.646;2023-06-19T12:41:51;100226.25;;;34.92;nan
55685;BME280;41883;49.544;8.646;2023-06-19T12:44:17;100220.28;;;34.98;nan
55685;BME280;41883;49.544;8.646;2023-06-19T12:46:42;100213.84;;;35.12;nan
55685;BME280;41883;49.544;8.646;2023-06-19T12:49:07;100221.94;;;35.17;nan
55685;BME280;41883;49.544;8.646;2023-06-19T12:51:33;100216.22;;;35.39;nan
55685;BME280;41883;49.544;8.646;2023-06-19T12:53:59;100219.00;;;35.13;nan
55685;BME280;41883;49.544;8.646;2023-06-19T12:56:24;100212.38;;;35.23;nan
55685;BME280;41883;49.544;8.646;2023-06-19T12:58:49;100210.75;;;34.96;nan
55685;BME280;41883;49.544;8.646;2023-06-19T13:01:15;100206.38;;;34.77;nan
55685;BME280;41883;49.544;8.646;2023-06-19T13:03:40;100205.66;;;34.45;nan
55685;BME280;41883;49.544;8.646;2023-06-19T13:06:05;100208.03;;;34.30;nan
55685;BME280;41883;49.544;8.646;2023-06-19T13:08:30;100199.19;;;34.41;nan
55685;BME280;41883;49.544;8.646;2023-06-19T13:10:56;100198.38;;;34.41;nan
55685;BME280;41883;49.544;8.646;2023-06-19T13:13:21;100206.94;;;34.39;nan
55685;BME280;41883;49.544;8.646;2023-06-19T13:15:46;100199.13;;;34.64;nan
55685;BME280;41883;49.544;8.646;2023-06-19T13:18:12;100203.78;;;34.72;nan
55685;BME280;41883;49.544;8.646;2023-06-19T13:20:37;100210.50;;;34.48;nan
55685;BME280;41883;49.544;8.646;2023-06-19T13:23:02;100202.88;;;34.19;nan
55685;BME280;41883;49.544;8.646;2023-06-19T13:25:27;100205.47;;;34.24;nan
55685;BME280;41883;49.544;8.646;2023-06-19T13:27:53;100204.69;;;34.41;nan
55685;BME280;41883;49.544;8.646;2023-06-19T13:30:18;100201.56;;;34.17;nan
55685;BME280;41883;49.544;8.646;2023-06-19T13:32:43;100199.16;;;33.84;nan
55685;BME280;41883;49.544;8.646;2023-06-19T13:35:09;100201.94;;;34.01;nan
55685;BME280;41883;49.544;8.646;2023-06-19T13:37:36;100195.03;;;34.04;nan
55685;BME280;41883;49.544;8.646;2023-06-19T13:40:02;100199.84;;;33.98;nan
55685;BME280;41883;49.544;8.646;2023-06-19T13:42:29;100196.41;;;33.84;nan
55685;BME280;41883;49.544;8.646;2023-06-19T13:44:55;100189.91;;;33.80;nan
55685;BME280;41883;49.544;8.646;2023-06-19T13:47:20;100184.28;;;33.76;nan
55685;BME280;41883;49.544;8.646;2023-06-19T13:49:46;100180.28;;;33.82;nan
55685;BME280;41883;49.544;8.646;2023-06-19T13:52:11;100173.72;;;33.38;nan
55685;BME280;41883;49.544;8.646;2023-06-19T13:54:37;100178.88;;;33.09;nan
55685;BME280;41883;49.544;8.646;2023-06-19T13:57:02;100180.28;;;33.06;nan
55685;BME280;41883;49.544;8.646;2023-06-19T13:59:28;100169.22;;;32.97;nan
55685;BME280;41883;49.544;8.646;2023-06-19T14:01:54;100178.22;;;33.12;nan
55685;BME280;41883;49.544;8.646;2023-06-19T14:04:19;100171.56;;;33.27;nan
55685;BME280;41883;49.544;8.646;2023-06-19T14:06:44;100166.63;;;33.60;nan
55685;BME280;41883;49.544;8.646;2023-06-19T14:09:10;100156.34;;;33.74;nan
55685;BME280;41883;49.544;8.646;2023-06-19T14:11:35;100150.91;;;33.83;nan
55685;BME280;41883;49.544;8.646;2023-06-19T14:14:00;100151.88;;;33.87;nan
55685;BME280;41883;49.544;8.646;2023-06-19T14:16:25;100150.13;;;33.91;nan
55685;BME280;41883;49.544;8.646;2023-06-19T14:18:51;100152.97;;;33.77;nan
55685;BME280;41883;49.544;8.646;2023-06-19T14:21:16;100150.47;;;33.98;nan
55685;BME280;41883;49.544;8.646;2023-06-19T14:23:41;100147.69;;;33.81;nan
55685;BME280;41883;49.544;8.646;2023-06-19T14:26:10;100143.03;;;33.90;nan
55685;BME280;41883;49.544;8.646;2023-06-19T14:28:37;100148.03;;;33.88;nan
55685;BME280;41883;49.544;8.646;2023-06-19T14:31:03;100142.91;;;34.04;nan
55685;BME280;41883;49.544;8.646;2023-06-19T14:33:29;100147.69;;;33.81;nan
55685;BME280;41883;49.544;8.646;2023-06-19T14:35:54;100140.41;;;33.76;nan
55685;BME280;41883;49.544;8.646;2023-06-19T14:38:19;100133.63;;;33.74;nan
55685;BME280;41883;49.544;8.646;2023-06-19T14:40:45;100135.72;;;33.77;nan
55685;BME280;41883;49.544;8.646;2023-06-19T14:43:10;100137.91;;;33.57;nan
55685;BME280;41883;49.544;8.646;2023-06-19T14:45:36;100137.00;;;33.48;nan
55685;BME280;41883;49.544;8.646;2023-06-19T14:48:02;100133.25;;;33.35;nan
55685;BME280;41883;49.544;8.646;2023-06-19T14:50:27;100130.59;;;33.53;nan
55685;BME280;41883;49.544;8.646;2023-06-19T14:52:53;100130.53;;;33.44;nan
55685;BME280;41883;49.544;8.646;2023-06-19T14:55:18;100125.84;;;33.67;nan
55685;BME280;41883;49.544;8.646;2023-06-19T14:57:43;100123.94;;;33.45;nan
55685;BME280;41883;49.544;8.646;2023-06-19T15:00:09;100121.19;;;33.45;nan
55685;BME280;41883;49.544;8.646;2023-06-19T15:02:35;100131.78;;;32.70;nan
55685;BME280;41883;49.544;8.646;2023-06-19T15:05:00;100128.50;;;32.82;nan
55685;BME280;41883;49.544;8.646;2023-06-19T15:07:26;100126.19;;;33.12;nan
55685;BME280;41883;49.544;8.646;2023-06-19T15:09:51;100129.66;;;33.97;nan
55685;BME280;41883;49.544;8.646;2023-06-19T15:12:17;100126.72;;;34.42;nan
55685;BME280;41883;49.544;8.646;2023-06-19T15:14:42;100127.13;;;34.10;nan
55685;BME280;41883;49.544;8.646;2023-06-19T15:17:07;100124.69;;;33.59;nan
55685;BME280;41883;49.544;8.646;2023-06-19T15:19:32;100125.78;;;33.58;nan
55685;BME280;41883;49.544;8.646;2023-06-19T15:21:58;100125.09;;;33.84;nan
55685;BME280;41883;49.544;8.646;2023-06-19T15:24:23;100122.78;;;34.09;nan
55685;BME280;41883;49.544;8.646;2023-06-19T15:26:48;100124.59;;;33.82;nan
55685;BME280;41883;49.544;8.646;2023-06-19T15:29:13;100124.66;;;34.08;nan
55685;BME280;41883;49.544;8.646;2023-06-19T15:31:39;100117.91;;;35.36;nan
55685;BME280;41883;49.544;8.646;2023-06-19T15:34:04;100113.75;;;36.28;nan
55685;BME280;41883;49.544;8.646;2023-06-19T15:36:29;100106.72;;;36.81;nan
55685;BME280;41883;49.544;8.646;2023-06-19T15:38:54;100114.38;;;36.33;nan
55685;BME280;41883;49.544;8.646;2023-06-19T15:41:20;100113.00;;;34.86;nan
55685;BME280;41883;49.544;8.646;2023-06-19T15:43:45;100102.72;;;34.08;nan